Terminal Aerodrome Forecast
Issued by NWS

Home | Current Version | Previous Version | Text Only | Print | Product List | Glossary Off
Versions: 1 2 3 4 5 6 7 8 9 10 11 12 13 14

000
FTUS43 KMPX 290520
TAFRWF
TAF
KRWF 290520Z 2906/3006 25011KT P6SM SKC
     FM291300 27017G25KT P6SM SKC
     FM291500 28021G32KT P6SM SKC
     FM300100 25008KT P6SM SKC=

USA.gov is the U.S. government's official web portal to all federal, state and local government web resources and services.